VTSE/CJM METAR and TAF weather

Enter ICAO airport designator
Station Type Date Time Source
VTSE METAR 2023/03/27 10:00 UTC NOAA

VTSE 271000Z 12007KT 080V150 9000 NSC 31/25 Q1006 NOSIG


Station Type Date Time Source
VTSE Decoded METAR 2023/03/27 10:00 UTC NOAA

Station name not available
Mar 27, 2023 - 06:00 AM EDT / 2023.03.27 1000 UTC
Wind: from the ESE (120 degrees) at 8 MPH (7 KT) (direction variable):0
Visibility: 5 mile(s):0
Temperature: 87 F (31 C)
Heat index: 97.5 F (36.4 C):1
Dew Point: 77 F (25 C)
Relative Humidity: 70%
Pressure (altimeter): 29.71 in. Hg (1006 hPa)
ob: VTSE 271000Z 12007KT 080V150 9000 NSC 31/25 Q1006 NOSIG
cycle: 10

Station Type Date Time Source
VTSE TAF 2023/03/27 06:00 UTC NOAA

TAF VTSE 270500Z 2706/2806 14008KT 9000 FEW020
BECMG 2713/2715 27003KT
BECMG 2803/2805 14008KT

Example: see airport list